Time;durP1;ratioP1;P1;durP2;ratioP2;P2;SDS_P1;SDS_P2;PMS_P1;PMS_P2;Temp;Humidity;BMP_temperature;BMP_pressure;BME280_temperature;BME280_humidity;BME280_pressure;Samples;Min_cycle;Max_cycle;Signal;HPM_P1;HPM_P2
2022/09/17 00:01:31;;;;;;;;;;;;;;;9.50;100.00;97953.40;105223;1270;62079;-73
2022/09/17 00:04:03;;;;;;;;;;;;;;;9.45;100.00;97956.29;105187;1270;62092;-76
2022/09/17 00:06:30;;;;;;;;;;;;;;;9.39;100.00;97960.67;105149;1271;74338;-75
2022/09/17 00:08:56;;;;;;;;;;;;;;;9.34;100.00;97961.05;105200;1270;62158;-74
2022/09/17 00:11:27;;;;;;;;;;;;;;;9.30;100.00;97956.75;105167;1270;62092;-73
2022/09/17 00:13:54;;;;;;;;;;;;;;;9.27;100.00;97954.67;105166;1271;77110;-73
2022/09/17 00:16:22;;;;;;;;;;;;;;;9.26;100.00;97952.14;105218;1271;69707;-75
2022/09/17 00:18:48;;;;;;;;;;;;;;;9.24;100.00;97946.73;105173;1271;74646;-74
2022/09/17 00:21:18;;;;;;;;;;;;;;;9.23;100.00;97944.55;104930;1274;62620;-74
2022/09/17 00:23:44;;;;;;;;;;;;;;;9.20;100.00;97943.00;105193;1271;62075;-74
2022/09/17 00:26:10;;;;;;;;;;;;;;;9.17;100.00;97942.88;105318;1271;76385;-74
2022/09/17 00:28:37;;;;;;;;;;;;;;;9.14;100.00;97946.64;105168;1271;62206;-73
2022/09/17 00:31:07;;;;;;;;;;;;;;;9.10;100.00;97946.92;105165;1271;62163;-73
2022/09/17 00:33:34;;;;;;;;;;;;;;;9.07;100.00;97948.25;105194;1271;62210;-74
2022/09/17 00:36:01;;;;;;;;;;;;;;;9.03;100.00;97950.55;105164;1270;62123;-74
2022/09/17 00:38:27;;;;;;;;;;;;;;;8.99;100.00;97947.98;105222;1271;77185;-74
2022/09/17 00:40:53;;;;;;;;;;;;;;;8.96;100.00;97947.54;105176;1271;62126;-74
2022/09/17 00:43:33;;;;;;;;;;;;;;;8.92;100.00;97952.27;105193;1270;62189;-75
2022/09/17 00:45:58;;;;;;;;;;;;;;;8.87;100.00;97954.93;105185;1271;62010;-75
2022/09/17 00:48:25;;;;;;;;;;;;;;;8.84;100.00;97955.22;105091;1271;62218;-75
2022/09/17 00:50:51;;;;;;;;;;;;;;;8.81;100.00;97950.48;105195;1270;62213;-75
2022/09/17 00:53:19;;;;;;;;;;;;;;;8.77;100.00;97947.86;105177;1271;62079;-76
2022/09/17 00:55:53;;;;;;;;;;;;;;;8.76;100.00;97945.64;105174;1271;73467;-74
2022/09/17 00:58:21;;;;;;;;;;;;;;;8.76;100.00;97943.71;104979;1271;62180;-75
2022/09/17 01:00:47;;;;;;;;;;;;;;;8.75;100.00;97944.66;105186;1271;62197;-74
2022/09/17 01:03:14;;;;;;;;;;;;;;;8.74;100.00;97948.52;105171;1271;62121;-74
2022/09/17 01:05:45;;;;;;;;;;;;;;;8.73;100.00;97944.69;105046;1272;62159;-75
2022/09/17 01:08:25;;;;;;;;;;;;;;;8.71;100.00;97942.20;105189;1271;74362;-74
2022/09/17 01:11:07;;;;;;;;;;;;;;;8.67;100.00;97938.37;105074;1271;62111;-75
2022/09/17 01:13:41;;;;;;;;;;;;;;;8.66;100.00;97936.68;105049;1271;62064;-75
2022/09/17 01:16:27;;;;;;;;;;;;;;;8.65;100.00;97939.81;105154;1271;76641;-74
2022/09/17 01:19:09;;;;;;;;;;;;;;;8.64;100.00;97938.10;105164;1271;69519;-75
2022/09/17 01:21:52;;;;;;;;;;;;;;;8.62;100.00;97937.20;105174;1271;74073;-74
2022/09/17 01:24:37;;;;;;;;;;;;;;;8.61;100.00;97942.06;105175;1271;62117;-75
2022/09/17 01:27:06;;;;;;;;;;;;;;;8.61;100.00;97939.06;105154;1271;62194;-74
2022/09/17 01:29:50;;;;;;;;;;;;;;;8.60;100.00;97936.45;105178;1271;77063;-74
2022/09/17 01:32:29;;;;;;;;;;;;;;;8.61;100.00;97941.85;105131;1270;69535;-75
2022/09/17 01:35:00;;;;;;;;;;;;;;;8.65;100.00;97942.84;105252;1270;74571;-75
2022/09/17 01:37:35;;;;;;;;;;;;;;;8.67;100.00;97940.93;105210;1271;62168;-74
2022/09/17 01:40:07;;;;;;;;;;;;;;;8.67;100.00;97938.73;105150;1271;62194;-75
2022/09/17 01:42:53;;;;;;;;;;;;;;;8.69;100.00;97938.05;105155;1271;77368;-73
2022/09/17 01:45:21;;;;;;;;;;;;;;;8.75;100.00;97939.77;105183;1270;69891;-75
2022/09/17 01:47:53;;;;;;;;;;;;;;;8.78;100.00;97939.17;105181;1270;73346;-74
2022/09/17 01:50:25;;;;;;;;;;;;;;;8.79;100.00;97941.89;105180;1270;61951;-73
2022/09/17 01:52:52;;;;;;;;;;;;;;;8.81;100.00;97940.75;105175;1271;61998;-74
2022/09/17 01:55:21;;;;;;;;;;;;;;;8.80;100.00;97943.10;105187;1271;75988;-74
2022/09/17 01:57:51;;;;;;;;;;;;;;;8.80;100.00;97940.06;105198;1270;69035;-73
2022/09/17 02:00:36;;;;;;;;;;;;;;;8.80;100.00;97938.15;105168;1270;73904;-74
2022/09/17 02:03:09;;;;;;;;;;;;;;;8.79;100.00;97936.41;105144;1270;62161;-74
2022/09/17 02:05:34;;;;;;;;;;;;;;;8.78;100.00;97933.80;105179;1270;62177;-74
2022/09/17 02:08:15;;;;;;;;;;;;;;;8.78;100.00;97933.66;105202;1270;62187;-74
2022/09/17 02:10:44;;;;;;;;;;;;;;;8.80;100.00;97938.27;105183;1270;69216;-74
2022/09/17 02:13:20;;;;;;;;;;;;;;;8.83;100.00;97945.84;105210;1270;73500;-73
2022/09/17 02:15:49;;;;;;;;;;;;;;;8.87;100.00;97951.44;105148;1270;62082;-74
2022/09/17 02:18:26;;;;;;;;;;;;;;;8.92;100.00;97954.52;105131;1270;62033;-76
2022/09/17 02:20:57;;;;;;;;;;;;;;;8.97;100.00;97959.28;105175;1270;77088;-74
2022/09/17 02:23:27;;;;;;;;;;;;;;;9.02;100.00;97960.90;105172;1271;69362;-74
2022/09/17 02:26:06;;;;;;;;;;;;;;;9.06;100.00;97962.75;105138;1270;74626;-74
2022/09/17 02:28:38;;;;;;;;;;;;;;;9.09;100.00;97968.13;105184;1270;62121;-76
2022/09/17 02:31:04;;;;;;;;;;;;;;;9.11;100.00;97964.23;105042;1271;62050;-74
2022/09/17 02:33:32;;;;;;;;;;;;;;;9.14;100.00;97963.30;105180;1271;62204;-74
2022/09/17 02:35:58;;;;;;;;;;;;;;;9.16;100.00;97961.23;105178;1270;68352;-75
2022/09/17 02:38:25;;;;;;;;;;;;;;;9.17;100.00;97964.85;105434;1271;62070;-72
2022/09/17 02:40:58;;;;;;;;;;;;;;;9.17;100.00;97966.95;105148;1271;62106;-74
2022/09/17 02:43:28;;;;;;;;;;;;;;;9.17;100.00;97965.88;105155;1270;62133;-74
2022/09/17 02:46:00;;;;;;;;;;;;;;;9.16;100.00;97960.29;105168;1270;75763;-73
2022/09/17 02:48:42;;;;;;;;;;;;;;;9.16;100.00;97956.98;105206;1271;69565;-74
2022/09/17 02:51:27;;;;;;;;;;;;;;;9.17;100.00;97952.81;105164;1270;72195;-73
2022/09/17 02:53:56;;;;;;;;;;;;;;;9.17;100.00;97955.66;105152;1270;62190;-74
2022/09/17 02:56:44;;;;;;;;;;;;;;;9.16;100.00;97953.43;105112;1270;62075;-73
2022/09/17 02:59:13;;;;;;;;;;;;;;;9.18;100.00;97955.01;105046;1270;75441;-76
2022/09/17 03:01:45;;;;;;;;;;;;;;;9.21;100.00;97944.71;105151;1270;70970;-76
2022/09/17 03:04:14;;;;;;;;;;;;;;;9.25;100.00;97937.33;105033;1270;74432;-76
2022/09/17 03:06:42;;;;;;;;;;;;;;;9.26;100.00;97926.05;105023;1271;62072;-74
2022/09/17 03:09:08;;;;;;;;;;;;;;;9.25;100.00;97918.70;105129;1270;62052;-73
2022/09/17 03:11:34;;;;;;;;;;;;;;;9.23;100.00;97915.44;105096;1271;62217;-75
2022/09/17 03:14:00;;;;;;;;;;;;;;;9.19;100.00;97915.20;105101;1270;62086;-74
2022/09/17 03:16:26;;;;;;;;;;;;;;;9.15;100.00;97919.24;105166;1270;62127;-75
2022/09/17 03:18:52;;;;;;;;;;;;;;;9.12;100.00;97925.71;105074;1270;62091;-74
2022/09/17 03:21:18;;;;;;;;;;;;;;;9.09;100.00;97924.35;105177;1270;62171;-73
2022/09/17 03:23:45;;;;;;;;;;;;;;;9.05;100.00;97919.92;105154;1270;62117;-73
2022/09/17 03:26:11;;;;;;;;;;;;;;;9.00;100.00;97913.16;105075;1270;62088;-75
2022/09/17 03:28:37;;;;;;;;;;;;;;;8.97;100.00;97915.20;104919;1273;62109;-75
2022/09/17 03:31:04;;;;;;;;;;;;;;;8.94;100.00;97914.87;105157;1270;62150;-74
2022/09/17 03:33:31;;;;;;;;;;;;;;;8.91;100.00;97911.73;105347;1270;76091;-74
2022/09/17 03:35:57;;;;;;;;;;;;;;;8.90;100.00;97908.15;105121;1270;62203;-74
2022/09/17 03:38:22;;;;;;;;;;;;;;;8.88;100.00;97908.61;105120;1270;62254;-75
2022/09/17 03:40:59;;;;;;;;;;;;;;;8.85;100.00;97907.98;104924;1273;62086;-75
2022/09/17 03:43:26;;;;;;;;;;;;;;;8.82;100.00;97907.49;105181;1270;62097;-75
2022/09/17 03:45:52;;;;;;;;;;;;;;;8.79;100.00;97902.73;105239;1270;77011;-75
2022/09/17 03:48:18;;;;;;;;;;;;;;;8.77;100.00;97898.86;105090;1270;62254;-75
2022/09/17 03:50:44;;;;;;;;;;;;;;;8.73;100.00;97896.13;105067;1270;62094;-74
2022/09/17 03:53:10;;;;;;;;;;;;;;;8.70;100.00;97891.42;105146;1270;62148;-75
2022/09/17 03:55:39;;;;;;;;;;;;;;;8.66;100.00;97886.60;105176;1270;62143;-74
2022/09/17 03:58:05;;;;;;;;;;;;;;;8.66;100.00;97889.11;105154;1270;76171;-75
2022/09/17 04:00:31;;;;;;;;;;;;;;;8.63;100.00;97884.71;105140;1271;62117;-74
2022/09/17 04:02:57;;;;;;;;;;;;;;;8.61;100.00;97882.58;105148;1270;62099;-74
2022/09/17 04:05:23;;;;;;;;;;;;;;;8.59;100.00;97880.26;105191;1270;62130;-75
2022/09/17 04:07:49;;;;;;;;;;;;;;;8.59;100.00;97878.69;105136;1270;62171;-74
2022/09/17 04:10:16;;;;;;;;;;;;;;;8.59;100.00;97880.80;105156;1270;62155;-75
2022/09/17 04:12:42;;;;;;;;;;;;;;;8.61;100.00;97887.02;105166;1270;62091;-76
2022/09/17 04:15:08;;;;;;;;;;;;;;;8.61;100.00;97886.32;105122;1270;62088;-75
2022/09/17 04:17:35;;;;;;;;;;;;;;;8.60;100.00;97893.27;105130;1270;62261;-76
2022/09/17 04:20:01;;;;;;;;;;;;;;;8.60;100.00;97891.48;104937;1271;62181;-76
2022/09/17 04:22:27;;;;;;;;;;;;;;;8.62;100.00;97885.52;105308;1270;62092;-74
2022/09/17 04:24:53;;;;;;;;;;;;;;;8.63;100.00;97885.43;105171;1271;62169;-74
2022/09/17 04:27:19;;;;;;;;;;;;;;;8.63;100.00;97883.29;105119;1270;62439;-75
2022/09/17 04:29:44;;;;;;;;;;;;;;;8.65;100.00;97878.75;105151;1270;62097;-75
2022/09/17 04:32:10;;;;;;;;;;;;;;;8.68;100.00;97875.96;105141;1270;62171;-75
2022/09/17 04:34:36;;;;;;;;;;;;;;;8.73;100.00;97880.02;105144;1270;62146;-74
2022/09/17 04:37:03;;;;;;;;;;;;;;;8.77;100.00;97883.63;105058;1270;62056;-75
2022/09/17 04:39:29;;;;;;;;;;;;;;;8.81;100.00;97882.27;104930;1272;62223;-76
2022/09/17 04:41:55;;;;;;;;;;;;;;;8.86;100.00;97886.10;105058;1270;62089;-75
2022/09/17 04:44:21;;;;;;;;;;;;;;;8.93;100.00;97886.32;105205;1270;62138;-75
2022/09/17 04:46:47;;;;;;;;;;;;;;;9.00;100.00;97888.39;105126;1270;73467;-75
2022/09/17 04:49:13;;;;;;;;;;;;;;;9.10;100.00;97893.98;105170;1270;62092;-75
2022/09/17 04:51:39;;;;;;;;;;;;;;;9.35;100.00;97892.02;105135;1271;62117;-75
2022/09/17 04:54:05;;;;;;;;;;;;;;;9.41;100.00;97895.25;105024;1271;62191;-75
2022/09/17 04:56:31;;;;;;;;;;;;;;;9.50;100.00;97896.65;105171;1270;62283;-74
2022/09/17 04:58:57;;;;;;;;;;;;;;;9.59;100.00;97895.09;105157;1270;62149;-75
2022/09/17 05:01:23;;;;;;;;;;;;;;;9.80;100.00;97891.22;105081;1270;62174;-74
2022/09/17 05:03:49;;;;;;;;;;;;;;;10.31;100.00;97894.45;105157;1270;76202;-74
2022/09/17 05:06:15;;;;;;;;;;;;;;;10.58;100.00;97895.14;105196;1270;62066;-76
2022/09/17 05:08:41;;;;;;;;;;;;;;;10.45;100.00;97893.13;105144;1270;62186;-74
2022/09/17 05:11:07;;;;;;;;;;;;;;;10.43;100.00;97891.52;105187;1270;62095;-74
2022/09/17 05:13:33;;;;;;;;;;;;;;;10.49;100.00;97891.39;105204;1270;62131;-74
2022/09/17 05:15:59;;;;;;;;;;;;;;;10.51;100.00;97889.66;105196;1270;62183;-73
2022/09/17 05:18:25;;;;;;;;;;;;;;;10.54;100.00;97892.35;105230;1270;62188;-73
2022/09/17 05:20:51;;;;;;;;;;;;;;;10.62;100.00;97895.52;105167;1270;62075;-74
2022/09/17 05:23:17;;;;;;;;;;;;;;;10.67;100.00;97890.45;105142;1270;62045;-74
2022/09/17 05:25:43;;;;;;;;;;;;;;;10.76;100.00;97888.80;105189;1270;76567;-75
2022/09/17 05:28:09;;;;;;;;;;;;;;;10.87;100.00;97880.87;105207;1270;62207;-74
2022/09/17 05:30:35;;;;;;;;;;;;;;;10.94;100.00;97876.89;105185;1270;62069;-75
2022/09/17 05:33:03;;;;;;;;;;;;;;;10.99;100.00;97875.23;105208;1270;62129;-75
2022/09/17 05:35:29;;;;;;;;;;;;;;;11.02;100.00;97868.73;105339;1270;62087;-73
2022/09/17 05:37:59;;;;;;;;;;;;;;;11.06;100.00;97875.86;105127;1270;76177;-74
2022/09/17 05:40:25;;;;;;;;;;;;;;;11.20;100.00;97878.42;105198;1270;69325;-77
2022/09/17 05:42:56;;;;;;;;;;;;;;;11.45;100.00;97884.35;105052;1272;74416;-75
2022/09/17 05:45:22;;;;;;;;;;;;;;;11.68;100.00;97881.82;105214;1270;62136;-75
2022/09/17 05:47:53;;;;;;;;;;;;;;;11.85;100.00;97881.77;104919;1270;62084;-75
2022/09/17 05:50:19;;;;;;;;;;;;;;;11.91;100.00;97882.10;105158;1270;77276;-75
2022/09/17 05:52:45;;;;;;;;;;;;;;;11.90;100.00;97876.33;105175;1270;62178;-75
2022/09/17 05:55:12;;;;;;;;;;;;;;;11.95;100.00;97875.30;105116;1270;62114;-74
2022/09/17 05:57:38;;;;;;;;;;;;;;;12.00;100.00;97874.13;105138;1270;62264;-78
2022/09/17 06:00:05;;;;;;;;;;;;;;;12.11;100.00;97875.81;105218;1270;62210;-75
2022/09/17 06:02:35;;;;;;;;;;;;;;;12.27;100.00;97882.17;105202;1270;75944;-75
2022/09/17 06:05:04;;;;;;;;;;;;;;;12.50;100.00;97886.35;105194;1270;62092;-75
2022/09/17 06:07:30;;;;;;;;;;;;;;;12.71;100.00;97884.56;105001;1270;73222;-75
2022/09/17 06:09:56;;;;;;;;;;;;;;;12.75;100.00;97884.91;105149;1270;62284;-75
2022/09/17 06:12:22;;;;;;;;;;;;;;;12.74;100.00;97881.37;105198;1270;62072;-75
2022/09/17 06:14:48;;;;;;;;;;;;;;;12.77;100.00;97878.27;105192;1268;62184;-74
2022/09/17 06:17:14;;;;;;;;;;;;;;;12.77;100.00;97868.64;105155;1270;62081;-74
2022/09/17 06:19:40;;;;;;;;;;;;;;;12.73;100.00;97860.64;105206;1270;62232;-75
2022/09/17 06:22:06;;;;;;;;;;;;;;;12.74;100.00;97862.86;104091;1270;1511493;-75
2022/09/17 06:24:32;;;;;;;;;;;;;;;12.78;100.00;97862.70;105218;1270;76048;-74
2022/09/17 06:26:58;;;;;;;;;;;;;;;12.85;100.00;97861.98;105093;1270;62163;-75
2022/09/17 06:29:24;;;;;;;;;;;;;;;12.97;100.00;97868.16;105296;1270;62103;-75
2022/09/17 06:31:50;;;;;;;;;;;;;;;13.08;100.00;97872.27;105771;1270;62178;-75
2022/09/17 06:34:16;;;;;;;;;;;;;;;13.15;100.00;97873.74;104908;1271;62172;-75
2022/09/17 06:36:42;;;;;;;;;;;;;;;13.22;100.00;97870.30;105176;1270;62270;-75
2022/09/17 06:39:10;;;;;;;;;;;;;;;13.26;100.00;97873.88;105209;1270;62102;-76
2022/09/17 06:41:41;;;;;;;;;;;;;;;13.27;100.00;97878.40;105174;1269;62187;-74
2022/09/17 06:44:07;;;;;;;;;;;;;;;13.25;100.00;97888.73;105231;1270;62257;-75
2022/09/17 06:46:33;;;;;;;;;;;;;;;13.21;100.00;97890.92;105163;1270;62215;-75
2022/09/17 06:48:59;;;;;;;;;;;;;;;13.17;100.00;97889.24;105176;1270;62076;-76
2022/09/17 06:51:25;;;;;;;;;;;;;;;13.16;100.00;97884.73;105093;1270;70635;-77
2022/09/17 06:53:51;;;;;;;;;;;;;;;13.15;100.00;97891.12;105220;1270;62258;-77
2022/09/17 06:56:17;;;;;;;;;;;;;;;13.20;100.00;97897.95;105151;1270;62104;-77
2022/09/17 06:58:43;;;;;;;;;;;;;;;13.25;100.00;97895.20;105195;1270;62040;-76
2022/09/17 07:01:10;;;;;;;;;;;;;;;13.29;100.00;97891.98;105215;1270;62486;-74
2022/09/17 07:03:37;;;;;;;;;;;;;;;13.29;100.00;97891.95;105167;1270;62270;-76
2022/09/17 07:06:07;;;;;;;;;;;;;;;13.29;100.00;97892.45;104975;1270;62097;-75
2022/09/17 07:08:33;;;;;;;;;;;;;;;13.32;100.00;97879.48;105193;1270;62241;-75
2022/09/17 07:10:59;;;;;;;;;;;;;;;13.34;100.00;97889.00;105181;1270;62267;-75
2022/09/17 07:13:26;;;;;;;;;;;;;;;13.38;100.00;97889.42;105189;1270;62486;-75
2022/09/17 07:15:53;;;;;;;;;;;;;;;13.44;100.00;97890.80;105132;1270;62098;-75
2022/09/17 07:18:18;;;;;;;;;;;;;;;13.53;100.00;97889.80;105034;1270;62178;-74
2022/09/17 07:20:52;;;;;;;;;;;;;;;13.61;100.00;97894.16;105185;1270;62233;-76
2022/09/17 07:23:18;;;;;;;;;;;;;;;13.64;100.00;97901.58;105205;1270;62015;-76
2022/09/17 07:25:50;;;;;;;;;;;;;;;13.62;100.00;97906.45;105209;1270;62190;-76
2022/09/17 07:28:16;;;;;;;;;;;;;;;13.65;100.00;97918.48;105300;1270;69677;-76
2022/09/17 07:30:42;;;;;;;;;;;;;;;13.77;100.00;97918.38;105148;1270;63012;-75
2022/09/17 07:33:08;;;;;;;;;;;;;;;13.90;100.00;97918.86;105214;1270;62512;-76
2022/09/17 07:35:34;;;;;;;;;;;;;;;13.97;100.00;97924.95;105204;1270;62074;-76
2022/09/17 07:38:00;;;;;;;;;;;;;;;14.07;100.00;97917.91;105169;1270;62384;-76
2022/09/17 07:40:26;;;;;;;;;;;;;;;14.19;100.00;97925.16;105216;1270;62285;-74
2022/09/17 07:42:56;;;;;;;;;;;;;;;14.28;100.00;97926.40;105198;1270;62189;-77
2022/09/17 07:45:22;;;;;;;;;;;;;;;14.39;100.00;97935.45;104916;1270;62183;-76
2022/09/17 07:47:49;;;;;;;;;;;;;;;14.48;100.00;97937.52;105265;1270;62159;-76
2022/09/17 07:50:18;;;;;;;;;;;;;;;14.53;100.00;97936.95;105162;1270;62194;-74
2022/09/17 07:52:47;;;;;;;;;;;;;;;14.57;100.00;97936.77;105176;1270;70371;-75
2022/09/17 07:55:14;;;;;;;;;;;;;;;14.53;100.00;97933.58;105176;1269;73569;-76
2022/09/17 07:57:40;;;;;;;;;;;;;;;14.56;100.00;97935.81;105160;1270;61938;-74
2022/09/17 08:00:07;;;;;;;;;;;;;;;14.64;100.00;97936.59;105215;1270;62102;-75
2022/09/17 08:02:36;;;;;;;;;;;;;;;14.66;100.00;97942.08;104947;1270;77206;-73
2022/09/17 08:05:04;;;;;;;;;;;;;;;14.64;100.00;97945.87;105205;1270;69501;-74
2022/09/17 08:07:29;;;;;;;;;;;;;;;14.66;100.00;97936.52;105203;1270;74292;-75
2022/09/17 08:09:57;;;;;;;;;;;;;;;14.64;100.00;97919.45;105239;1270;62181;-75
2022/09/17 08:12:23;;;;;;;;;;;;;;;14.60;100.00;97923.23;105216;1270;62087;-74
2022/09/17 08:14:48;;;;;;;;;;;;;;;14.70;100.00;97927.58;105220;1270;62081;-74
2022/09/17 08:17:16;;;;;;;;;;;;;;;14.80;100.00;97928.70;105238;1270;70010;-75
2022/09/17 08:19:42;;;;;;;;;;;;;;;14.92;100.00;97922.42;105223;1270;62184;-75
2022/09/17 08:22:08;;;;;;;;;;;;;;;14.99;100.00;97928.45;105199;1270;62098;-75
2022/09/17 08:24:34;;;;;;;;;;;;;;;15.03;100.00;97926.89;105233;1270;62167;-76
2022/09/17 08:27:00;;;;;;;;;;;;;;;15.14;100.00;97928.26;105219;1270;62168;-75
2022/09/17 08:29:26;;;;;;;;;;;;;;;15.21;100.00;97926.81;104674;1270;62182;-75
2022/09/17 08:31:52;;;;;;;;;;;;;;;15.29;100.00;97928.04;105187;1270;62112;-75
2022/09/17 08:34:18;;;;;;;;;;;;;;;15.34;100.00;97926.77;105229;1270;62111;-75
2022/09/17 08:36:44;;;;;;;;;;;;;;;15.33;100.00;97932.54;105070;1270;76124;-75
2022/09/17 08:39:11;;;;;;;;;;;;;;;15.24;100.00;97935.35;105086;1270;62103;-75
2022/09/17 08:42:16;;;;;;;;;;;;;;;15.11;100.00;97942.52;105037;1270;62117;-75
2022/09/17 08:44:44;;;;;;;;;;;;;;;15.00;100.00;97936.67;104791;1278;62186;-76
2022/09/17 08:47:17;;;;;;;;;;;;;;;15.08;100.00;97931.59;104887;1277;62107;-76
2022/09/17 08:49:43;;;;;;;;;;;;;;;15.28;100.00;97923.20;104709;1278;73787;-76
2022/09/17 08:52:21;;;;;;;;;;;;;;;15.45;100.00;97914.54;104557;1278;62234;-75
2022/09/17 08:54:54;;;;;;;;;;;;;;;15.49;100.00;97910.30;104431;1278;71617;-74
2022/09/17 08:57:33;;;;;;;;;;;;;;;15.50;100.00;97904.83;104546;1277;62127;-76
2022/09/17 09:00:01;;;;;;;;;;;;;;;15.63;100.00;97902.95;104502;1278;62355;-76
2022/09/17 09:02:30;;;;;;;;;;;;;;;15.75;100.00;97899.90;104724;1277;76190;-75
2022/09/17 09:04:59;;;;;;;;;;;;;;;15.78;100.00;97901.63;104615;1277;69352;-74
2022/09/17 09:07:29;;;;;;;;;;;;;;;15.66;100.00;97900.29;104729;1277;72400;-75
2022/09/17 09:10:12;;;;;;;;;;;;;;;15.50;100.00;97901.13;104597;1277;62110;-75
2022/09/17 09:12:38;;;;;;;;;;;;;;;15.33;100.00;97897.86;104573;1277;62113;-75
2022/09/17 09:15:18;;;;;;;;;;;;;;;15.29;100.00;97898.61;104650;1271;76474;-75
2022/09/17 09:17:45;;;;;;;;;;;;;;;15.36;100.00;97906.17;105129;1271;70352;-75
2022/09/17 09:20:21;;;;;;;;;;;;;;;15.52;100.00;97911.79;105133;1271;73278;-76
2022/09/17 09:22:49;;;;;;;;;;;;;;;15.79;100.00;97921.70;105370;1271;62258;-76
2022/09/17 09:25:24;;;;;;;;;;;;;;;16.08;100.00;97932.48;105220;1271;62126;-76
2022/09/17 09:27:59;;;;;;;;;;;;;;;16.33;100.00;97937.29;104920;1272;76158;-75
2022/09/17 09:30:30;;;;;;;;;;;;;;;16.56;100.00;97936.44;105112;1271;69157;-75
2022/09/17 09:32:59;;;;;;;;;;;;;;;16.69;100.00;97933.39;105111;1271;73424;-78
2022/09/17 09:35:27;;;;;;;;;;;;;;;16.66;100.00;97930.70;105123;1271;62281;-75
2022/09/17 09:38:08;;;;;;;;;;;;;;;16.47;100.00;97930.24;105139;1271;61959;-75
2022/09/17 09:40:36;;;;;;;;;;;;;;;16.31;100.00;97931.09;105084;1271;76065;-75
2022/09/17 09:43:10;;;;;;;;;;;;;;;16.15;100.00;97930.05;105073;1271;69367;-74
2022/09/17 09:45:57;;;;;;;;;;;;;;;16.02;100.00;97934.55;104949;1271;73083;-74
2022/09/17 09:48:29;;;;;;;;;;;;;;;15.82;100.00;97940.77;105078;1270;62198;-75
2022/09/17 09:51:01;;;;;;;;;;;;;;;15.58;100.00;97943.02;105114;1271;62098;-75
2022/09/17 09:53:46;;;;;;;;;;;;;;;15.40;100.00;97949.75;105086;1271;77306;-76
2022/09/17 09:56:12;;;;;;;;;;;;;;;15.26;100.00;97947.95;105115;1271;70344;-75
2022/09/17 09:58:39;;;;;;;;;;;;;;;15.23;100.00;97948.44;105055;1271;62216;-76
2022/09/17 10:01:11;;;;;;;;;;;;;;;15.24;100.00;97947.70;105214;1271;62200;-76
2022/09/17 10:03:39;;;;;;;;;;;;;;;15.31;100.00;97948.48;105075;1271;62182;-75
2022/09/17 10:06:06;;;;;;;;;;;;;;;15.44;100.00;97940.25;105089;1271;77200;-76
2022/09/17 10:08:34;;;;;;;;;;;;;;;15.51;100.00;97934.11;105167;1271;69222;-76
2022/09/17 10:11:05;;;;;;;;;;;;;;;15.52;100.00;97934.58;105121;1271;73368;-75
2022/09/17 10:13:32;;;;;;;;;;;;;;;15.53;100.00;97931.57;105084;1271;62107;-75
2022/09/17 10:16:15;;;;;;;;;;;;;;;15.55;100.00;97932.77;105094;1271;62202;-76
2022/09/17 10:18:42;;;;;;;;;;;;;;;15.56;100.00;97929.09;105095;1271;77490;-74
2022/09/17 10:21:18;;;;;;;;;;;;;;;15.56;100.00;97933.22;105076;1271;70738;-76
2022/09/17 10:23:45;;;;;;;;;;;;;;;15.52;100.00;97940.86;105131;1271;74612;-75
2022/09/17 10:26:22;;;;;;;;;;;;;;;15.39;100.00;97954.52;105106;1271;62201;-75
2022/09/17 10:28:49;;;;;;;;;;;;;;;15.20;100.00;97961.30;105111;1271;62090;-75
2022/09/17 10:31:16;;;;;;;;;;;;;;;15.12;100.00;97959.10;105062;1271;76022;-75
2022/09/17 10:33:58;;;;;;;;;;;;;;;15.05;100.00;97961.56;105067;1271;62178;-75
2022/09/17 10:36:39;;;;;;;;;;;;;;;15.03;100.00;97960.91;105081;1271;74452;-75
2022/09/17 10:39:24;;;;;;;;;;;;;;;15.00;100.00;97958.54;105126;1271;62206;-76
2022/09/17 10:41:53;;;;;;;;;;;;;;;14.91;100.00;97951.86;105080;1271;62064;-76
2022/09/17 10:44:21;;;;;;;;;;;;;;;14.88;100.00;97951.14;105046;1271;75006;-75
2022/09/17 10:46:52;;;;;;;;;;;;;;;14.91;100.00;97954.44;105048;1271;70510;-75
2022/09/17 10:49:31;;;;;;;;;;;;;;;15.00;100.00;97958.17;105265;1271;74476;-75
2022/09/17 10:52:03;;;;;;;;;;;;;;;15.10;100.00;97961.47;105060;1271;62500;-77
2022/09/17 10:54:41;;;;;;;;;;;;;;;15.14;100.00;97967.41;105068;1271;62101;-76
2022/09/17 10:57:09;;;;;;;;;;;;;;;15.23;100.00;97968.73;105090;1271;76421;-76
2022/09/17 10:59:39;;;;;;;;;;;;;;;15.35;100.00;97968.17;105042;1271;70707;-75
2022/09/17 11:02:07;;;;;;;;;;;;;;;15.44;100.00;97958.84;105093;1271;73436;-76
2022/09/17 11:04:44;;;;;;;;;;;;;;;15.56;100.00;97956.11;105098;1271;62105;-75
2022/09/17 11:07:20;;;;;;;;;;;;;;;15.72;100.00;97949.13;104939;1272;62137;-75
2022/09/17 11:09:46;;;;;;;;;;;;;;;15.86;100.00;97950.89;105095;1271;76175;-74
2022/09/17 11:12:20;;;;;;;;;;;;;;;15.88;100.00;97948.92;105090;1271;62234;-75
2022/09/17 11:14:58;;;;;;;;;;;;;;;15.84;100.00;97946.71;104924;1273;71568;-75
2022/09/17 11:17:33;;;;;;;;;;;;;;;15.70;100.00;97945.02;105152;1271;62111;-76
2022/09/17 11:20:19;;;;;;;;;;;;;;;15.54;100.00;97943.11;105097;1271;62185;-74
2022/09/17 11:22:53;;;;;;;;;;;;;;;15.42;100.00;97951.73;105055;1270;76157;-75
2022/09/17 11:25:39;;;;;;;;;;;;;;;15.29;100.00;97960.50;105105;1271;69536;-74
2022/09/17 11:28:12;;;;;;;;;;;;;;;15.03;100.00;97972.34;104776;1277;73747;-75
2022/09/17 11:30:56;;;;;;;;;;;;;;;14.81;100.00;97978.17;104803;1277;62145;-74
2022/09/17 11:33:31;;;;;;;;;;;;;;;14.58;100.00;97977.92;104807;1277;62366;-75
2022/09/17 11:36:08;;;;;;;;;;;;;;;14.42;100.00;97972.88;104780;1277;76143;-74
2022/09/17 11:38:38;;;;;;;;;;;;;;;14.31;100.00;97963.22;104196;1277;69493;-74
2022/09/17 11:41:11;;;;;;;;;;;;;;;14.25;100.00;97957.20;104791;1277;74570;-75
2022/09/17 11:43:45;;;;;;;;;;;;;;;14.28;100.00;97952.98;105020;1277;62299;-76
2022/09/17 11:46:17;;;;;;;;;;;;;;;14.35;100.00;97952.50;104761;1277;62270;-74
2022/09/17 11:48:54;;;;;;;;;;;;;;;14.44;100.00;97953.00;104778;1277;77281;-76
2022/09/17 11:51:23;;;;;;;;;;;;;;;14.57;100.00;97953.17;104945;1277;66375;-76
2022/09/17 11:53:53;;;;;;;;;;;;;;;14.74;100.00;97949.01;104775;1277;72694;-74
2022/09/17 11:56:22;;;;;;;;;;;;;;;14.93;100.00;97948.15;104788;1277;62148;-74
2022/09/17 11:59:02;;;;;;;;;;;;;;;15.10;100.00;97944.59;104806;1277;62111;-74
2022/09/17 12:01:37;;;;;;;;;;;;;;;15.23;100.00;97939.85;104776;1277;76195;-75
2022/09/17 12:04:12;;;;;;;;;;;;;;;15.31;100.00;97939.16;104755;1277;70461;-75
2022/09/17 12:06:43;;;;;;;;;;;;;;;15.34;100.00;97937.47;105007;1271;73435;-75
2022/09/17 12:09:12;;;;;;;;;;;;;;;15.28;100.00;97933.64;105061;1271;62078;-79
2022/09/17 12:11:49;;;;;;;;;;;;;;;15.21;100.00;97931.68;105124;1272;62199;-74
2022/09/17 12:14:30;;;;;;;;;;;;;;;15.12;100.00;97928.67;105082;1271;77681;-74
2022/09/17 12:16:58;;;;;;;;;;;;;;;15.05;100.00;97926.88;105066;1271;69551;-74
2022/09/17 12:19:32;;;;;;;;;;;;;;;14.99;100.00;97925.39;105035;1271;73405;-74
2022/09/17 12:22:10;;;;;;;;;;;;;;;14.93;100.00;97919.72;105081;1271;62177;-75
2022/09/17 12:24:37;;;;;;;;;;;;;;;14.89;100.00;97920.30;104915;1272;62211;-76
2022/09/17 12:27:03;;;;;;;;;;;;;;;14.83;100.00;97911.63;105053;1271;75997;-75
2022/09/17 12:29:47;;;;;;;;;;;;;;;14.73;100.00;97912.05;105069;1271;62104;-75
2022/09/17 12:32:31;;;;;;;;;;;;;;;14.59;100.00;97905.58;105134;1271;73401;-76
2022/09/17 12:35:11;;;;;;;;;;;;;;;14.48;100.00;97897.02;105012;1271;62113;-75
2022/09/17 12:37:37;;;;;;;;;;;;;;;14.39;100.00;97898.73;105000;1271;61983;-74
2022/09/17 12:40:18;;;;;;;;;;;;;;;14.28;100.00;97902.59;105092;1271;62129;-74
2022/09/17 12:43:01;;;;;;;;;;;;;;;14.20;100.00;97905.92;105064;1271;70366;-75
2022/09/17 12:45:34;;;;;;;;;;;;;;;14.06;100.00;97908.76;105032;1271;74414;-75